sensor_id;sensor_type;location;lat;lon;timestamp;pressure;altitude;pressure_sealevel;temperature;humidity
57000;BME280;42891;50.006;21.964;2022-12-11T00:02:19;97615.09;;;0.91;89.66
57000;BME280;42891;50.006;21.964;2022-12-11T00:06:21;97580.97;;;0.71;89.99
57000;BME280;42891;50.006;21.964;2022-12-11T00:10:21;97598.84;;;0.63;90.25
57000;BME280;42891;50.006;21.964;2022-12-11T00:14:22;97610.25;;;0.73;90.06
57000;BME280;42891;50.006;21.964;2022-12-11T00:18:22;97601.75;;;0.71;90.38
57000;BME280;42891;50.006;21.964;2022-12-11T00:22:22;97599.16;;;0.71;90.09
57000;BME280;42891;50.006;21.964;2022-12-11T00:26:23;97590.84;;;0.66;90.99
57000;BME280;42891;50.006;21.964;2022-12-11T00:30:23;97589.78;;;0.68;90.79
57000;BME280;42891;50.006;21.964;2022-12-11T00:34:23;97580.34;;;0.67;89.87
57000;BME280;42891;50.006;21.964;2022-12-11T00:38:24;97583.56;;;0.58;91.00
57000;BME280;42891;50.006;21.964;2022-12-11T00:42:24;97576.34;;;0.50;91.04
57000;BME280;42891;50.006;21.964;2022-12-11T00:46:25;97586.63;;;0.52;90.70
57000;BME280;42891;50.006;21.964;2022-12-11T00:50:25;97572.88;;;0.50;91.02
57000;BME280;42891;50.006;21.964;2022-12-11T00:54:25;97578.31;;;0.47;90.98
57000;BME280;42891;50.006;21.964;2022-12-11T00:58:25;97566.59;;;0.41;91.23
57000;BME280;42891;50.006;21.964;2022-12-11T01:02:26;97555.78;;;0.47;91.45
57000;BME280;42891;50.006;21.964;2022-12-11T01:06:26;97560.81;;;0.62;91.05
57000;BME280;42891;50.006;21.964;2022-12-11T01:10:27;97565.50;;;0.70;90.27
57000;BME280;42891;50.006;21.964;2022-12-11T01:14:27;97571.31;;;0.60;89.82
57000;BME280;42891;50.006;21.964;2022-12-11T01:18:28;97560.72;;;0.63;89.89
57000;BME280;42891;50.006;21.964;2022-12-11T01:22:28;97568.84;;;0.59;90.46
57000;BME280;42891;50.006;21.964;2022-12-11T01:26:29;97560.19;;;0.58;90.36
57000;BME280;42891;50.006;21.964;2022-12-11T01:30:29;97551.75;;;0.43;90.07
57000;BME280;42891;50.006;21.964;2022-12-11T01:34:30;97533.28;;;0.35;90.39
57000;BME280;42891;50.006;21.964;2022-12-11T01:38:31;97530.91;;;0.32;90.25
57000;BME280;42891;50.006;21.964;2022-12-11T01:42:32;97517.06;;;0.31;90.60
57000;BME280;42891;50.006;21.964;2022-12-11T01:46:35;97520.94;;;0.50;90.53
57000;BME280;42891;50.006;21.964;2022-12-11T01:50:41;97509.47;;;0.41;89.84
57000;BME280;42891;50.006;21.964;2022-12-11T01:54:42;97504.66;;;0.48;90.48
57000;BME280;42891;50.006;21.964;2022-12-11T01:58:53;97496.25;;;0.44;90.58
57000;BME280;42891;50.006;21.964;2022-12-11T02:02:54;97487.41;;;0.47;90.28
57000;BME280;42891;50.006;21.964;2022-12-11T02:06:54;97480.06;;;0.41;90.45
57000;BME280;42891;50.006;21.964;2022-12-11T02:11:03;97469.19;;;0.36;90.41
57000;BME280;42891;50.006;21.964;2022-12-11T02:19:50;97460.72;;;0.21;91.36
57000;BME280;42891;50.006;21.964;2022-12-11T02:24:35;97469.50;;;0.31;90.89
57000;BME280;42891;50.006;21.964;2022-12-11T02:28:46;97461.97;;;0.15;91.04
57000;BME280;42891;50.006;21.964;2022-12-11T02:32:55;97458.56;;;0.14;91.67
57000;BME280;42891;50.006;21.964;2022-12-11T02:37:00;97463.00;;;0.25;91.42
57000;BME280;42891;50.006;21.964;2022-12-11T02:41:04;97459.66;;;0.23;91.34
57000;BME280;42891;50.006;21.964;2022-12-11T02:45:07;97465.53;;;0.01;91.89
57000;BME280;42891;50.006;21.964;2022-12-11T02:49:11;97470.91;;;0.11;91.88
57000;BME280;42891;50.006;21.964;2022-12-11T02:53:15;97467.38;;;0.12;91.47
57000;BME280;42891;50.006;21.964;2022-12-11T02:57:28;97470.78;;;0.25;91.29
57000;BME280;42891;50.006;21.964;2022-12-11T03:01:30;97461.44;;;0.23;91.31
57000;BME280;42891;50.006;21.964;2022-12-11T03:05:30;97461.56;;;0.21;90.82
57000;BME280;42891;50.006;21.964;2022-12-11T03:09:31;97459.06;;;0.20;91.90
57000;BME280;42891;50.006;21.964;2022-12-11T03:13:31;97459.84;;;0.33;91.74
57000;BME280;42891;50.006;21.964;2022-12-11T03:17:42;97445.63;;;0.26;90.98
57000;BME280;42891;50.006;21.964;2022-12-11T03:22:02;97435.50;;;0.23;91.04
57000;BME280;42891;50.006;21.964;2022-12-11T03:26:10;97419.63;;;0.14;91.15
57000;BME280;42891;50.006;21.964;2022-12-11T03:30:15;97398.25;;;0.11;90.76
57000;BME280;42891;50.006;21.964;2022-12-11T03:34:22;97378.09;;;0.14;90.88
57000;BME280;42891;50.006;21.964;2022-12-11T03:38:31;97378.44;;;0.10;90.92
57000;BME280;42891;50.006;21.964;2022-12-11T03:42:34;97347.94;;;0.01;90.96
57000;BME280;42891;50.006;21.964;2022-12-11T03:46:37;97363.06;;;0.07;91.13
57000;BME280;42891;50.006;21.964;2022-12-11T03:50:39;97351.81;;;0.19;91.21
57000;BME280;42891;50.006;21.964;2022-12-11T03:54:41;97358.72;;;0.07;90.86
57000;BME280;42891;50.006;21.964;2022-12-11T03:58:43;97349.00;;;-0.02;90.98
57000;BME280;42891;50.006;21.964;2022-12-11T04:02:44;97348.66;;;0.03;91.37
57000;BME280;42891;50.006;21.964;2022-12-11T04:06:44;97331.34;;;0.03;90.97
57000;BME280;42891;50.006;21.964;2022-12-11T04:10:45;97332.09;;;0.16;90.90
57000;BME280;42891;50.006;21.964;2022-12-11T04:14:45;97336.00;;;0.22;90.79
57000;BME280;42891;50.006;21.964;2022-12-11T04:19:01;97312.22;;;0.04;89.88
57000;BME280;42891;50.006;21.964;2022-12-11T04:23:19;97333.16;;;0.14;90.12
57000;BME280;42891;50.006;21.964;2022-12-11T04:27:38;97328.78;;;0.14;90.96
57000;BME280;42891;50.006;21.964;2022-12-11T04:31:48;97325.69;;;0.09;90.50
57000;BME280;42891;50.006;21.964;2022-12-11T04:35:49;97321.88;;;0.02;90.80
57000;BME280;42891;50.006;21.964;2022-12-11T04:39:49;97317.31;;;0.06;90.59
57000;BME280;42891;50.006;21.964;2022-12-11T04:43:50;97325.28;;;0.27;90.22
57000;BME280;42891;50.006;21.964;2022-12-11T04:47:50;97318.09;;;0.30;90.08
57000;BME280;42891;50.006;21.964;2022-12-11T04:51:51;97320.59;;;0.32;89.40
57000;BME280;42891;50.006;21.964;2022-12-11T04:55:51;97293.41;;;0.25;90.17
57000;BME280;42891;50.006;21.964;2022-12-11T04:59:51;97282.72;;;0.05;89.90
57000;BME280;42891;50.006;21.964;2022-12-11T05:03:52;97301.66;;;0.19;89.48
57000;BME280;42891;50.006;21.964;2022-12-11T05:07:52;97294.94;;;0.16;90.09
57000;BME280;42891;50.006;21.964;2022-12-11T05:11:52;97299.03;;;0.07;91.42
57000;BME280;42891;50.006;21.964;2022-12-11T05:15:53;97292.78;;;0.10;90.70
57000;BME280;42891;50.006;21.964;2022-12-11T05:19:54;97267.63;;;-0.01;90.24
57000;BME280;42891;50.006;21.964;2022-12-11T05:23:54;97286.25;;;0.04;90.45
57000;BME280;42891;50.006;21.964;2022-12-11T05:27:54;97267.13;;;-0.06;90.73
57000;BME280;42891;50.006;21.964;2022-12-11T05:31:55;97278.97;;;0.09;90.60
57000;BME280;42891;50.006;21.964;2022-12-11T05:35:55;97280.09;;;-0.06;90.44
57000;BME280;42891;50.006;21.964;2022-12-11T05:39:55;97285.00;;;0.10;91.10
57000;BME280;42891;50.006;21.964;2022-12-11T05:43:56;97282.97;;;0.02;90.47
57000;BME280;42891;50.006;21.964;2022-12-11T05:47:56;97241.38;;;-0.21;90.81
57000;BME280;42891;50.006;21.964;2022-12-11T05:51:56;97270.66;;;-0.07;90.99
57000;BME280;42891;50.006;21.964;2022-12-11T05:56:01;97272.69;;;0.01;91.12
57000;BME280;42891;50.006;21.964;2022-12-11T06:00:03;97238.94;;;-0.11;90.28
57000;BME280;42891;50.006;21.964;2022-12-11T06:04:05;97251.81;;;0.02;91.13
57000;BME280;42891;50.006;21.964;2022-12-11T06:08:06;97245.44;;;-0.05;91.00
57000;BME280;42891;50.006;21.964;2022-12-11T06:12:07;97251.41;;;-0.16;91.00
57000;BME280;42891;50.006;21.964;2022-12-11T06:16:08;97250.63;;;-0.05;91.45
57000;BME280;42891;50.006;21.964;2022-12-11T06:20:09;97221.06;;;-0.27;91.15
57000;BME280;42891;50.006;21.964;2022-12-11T06:24:10;97243.72;;;-0.18;92.04
57000;BME280;42891;50.006;21.964;2022-12-11T06:28:10;97210.78;;;-0.28;92.31
57000;BME280;42891;50.006;21.964;2022-12-11T06:32:10;97251.75;;;-0.21;91.63
57000;BME280;42891;50.006;21.964;2022-12-11T06:36:14;97251.06;;;-0.11;92.48
57000;BME280;42891;50.006;21.964;2022-12-11T06:40:14;97245.94;;;-0.24;92.07
57000;BME280;42891;50.006;21.964;2022-12-11T06:44:15;97244.09;;;-0.22;92.38
57000;BME280;42891;50.006;21.964;2022-12-11T06:48:15;97239.56;;;-0.31;92.02
57000;BME280;42891;50.006;21.964;2022-12-11T06:52:16;97239.47;;;-0.19;92.77
57000;BME280;42891;50.006;21.964;2022-12-11T06:56:16;97235.28;;;-0.32;91.53
57000;BME280;42891;50.006;21.964;2022-12-11T07:00:16;97236.84;;;-0.30;92.05
57000;BME280;42891;50.006;21.964;2022-12-11T07:04:17;97216.09;;;-0.30;92.15
57000;BME280;42891;50.006;21.964;2022-12-11T07:08:17;97226.59;;;-0.31;92.37
57000;BME280;42891;50.006;21.964;2022-12-11T07:12:17;97218.34;;;-0.25;92.60
57000;BME280;42891;50.006;21.964;2022-12-11T07:16:18;97208.53;;;-0.33;92.54
57000;BME280;42891;50.006;21.964;2022-12-11T07:20:18;97220.00;;;-0.24;92.65
57000;BME280;42891;50.006;21.964;2022-12-11T07:24:18;97213.13;;;-0.37;92.09
57000;BME280;42891;50.006;21.964;2022-12-11T07:28:19;97213.63;;;-0.31;91.49
57000;BME280;42891;50.006;21.964;2022-12-11T07:32:19;97205.06;;;-0.21;91.76
57000;BME280;42891;50.006;21.964;2022-12-11T07:36:19;97200.06;;;-0.24;92.04
57000;BME280;42891;50.006;21.964;2022-12-11T07:40:20;97210.00;;;-0.18;92.20
57000;BME280;42891;50.006;21.964;2022-12-11T07:44:20;97196.41;;;-0.32;91.75
57000;BME280;42891;50.006;21.964;2022-12-11T07:48:20;97191.44;;;-0.36;90.72
57000;BME280;42891;50.006;21.964;2022-12-11T07:52:21;97188.03;;;-0.36;90.74
57000;BME280;42891;50.006;21.964;2022-12-11T07:56:21;97200.34;;;-0.15;90.50
57000;BME280;42891;50.006;21.964;2022-12-11T08:00:22;97204.16;;;-0.08;90.50
57000;BME280;42891;50.006;21.964;2022-12-11T08:04:22;97214.53;;;-0.08;91.42
57000;BME280;42891;50.006;21.964;2022-12-11T08:08:22;97201.84;;;-0.24;91.25
57000;BME280;42891;50.006;21.964;2022-12-11T08:12:23;97201.06;;;-0.13;90.40
57000;BME280;42891;50.006;21.964;2022-12-11T08:16:23;97201.66;;;-0.10;90.18
57000;BME280;42891;50.006;21.964;2022-12-11T08:20:23;97203.19;;;-0.07;89.65
57000;BME280;42891;50.006;21.964;2022-12-11T08:24:23;97184.19;;;-0.19;90.39
57000;BME280;42891;50.006;21.964;2022-12-11T08:28:24;97172.50;;;-0.25;91.02
57000;BME280;42891;50.006;21.964;2022-12-11T08:32:24;97192.63;;;-0.04;90.92
57000;BME280;42891;50.006;21.964;2022-12-11T08:36:24;97185.94;;;-0.20;90.58
57000;BME280;42891;50.006;21.964;2022-12-11T08:40:25;97187.59;;;-0.19;90.76
57000;BME280;42891;50.006;21.964;2022-12-11T08:44:25;97191.13;;;-0.20;91.83
57000;BME280;42891;50.006;21.964;2022-12-11T08:48:27;97195.72;;;-0.23;91.14
57000;BME280;42891;50.006;21.964;2022-12-11T08:52:27;97181.44;;;-0.29;91.91
57000;BME280;42891;50.006;21.964;2022-12-11T08:56:28;59512.53;;;-146.02;100.00
57000;BME280;42891;50.006;21.964;2022-12-11T09:00:28;59512.53;;;-146.02;100.00
57000;BME280;42891;50.006;21.964;2022-12-11T09:04:28;59512.53;;;-146.02;100.00
57000;BME280;42891;50.006;21.964;2022-12-11T09:08:29;59512.53;;;-146.02;100.00
57000;BME280;42891;50.006;21.964;2022-12-11T09:12:29;59512.53;;;-146.02;100.00
57000;BME280;42891;50.006;21.964;2022-12-11T09:16:30;59512.53;;;-146.02;100.00
57000;BME280;42891;50.006;21.964;2022-12-11T09:20:31;59512.53;;;-146.02;100.00
57000;BME280;42891;50.006;21.964;2022-12-11T09:24:31;59512.53;;;-146.02;100.00
57000;BME280;42891;50.006;21.964;2022-12-11T09:28:31;59512.53;;;-146.02;100.00
57000;BME280;42891;50.006;21.964;2022-12-11T09:32:32;59512.53;;;-146.02;100.00
57000;BME280;42891;50.006;21.964;2022-12-11T09:36:32;59512.53;;;-146.02;100.00
57000;BME280;42891;50.006;21.964;2022-12-11T09:40:33;59512.53;;;-146.02;100.00
57000;BME280;42891;50.006;21.964;2022-12-11T09:48:39;59512.53;;;-146.02;100.00
57000;BME280;42891;50.006;21.964;2022-12-11T10:01:47;59512.53;;;-146.02;100.00
57000;BME280;42891;50.006;21.964;2022-12-11T10:06:01;59512.53;;;-146.02;100.00
57000;BME280;42891;50.006;21.964;2022-12-11T10:10:15;59512.53;;;-146.02;100.00
57000;BME280;42891;50.006;21.964;2022-12-11T10:14:40;59512.53;;;-146.02;100.00
57000;BME280;42891;50.006;21.964;2022-12-11T10:18:47;59512.53;;;-146.02;100.00
57000;BME280;42891;50.006;21.964;2022-12-11T10:22:49;59512.53;;;-146.02;100.00
57000;BME280;42891;50.006;21.964;2022-12-11T10:26:55;59512.53;;;-146.02;100.00
57000;BME280;42891;50.006;21.964;2022-12-11T10:35:03;59512.53;;;-146.02;100.00
57000;BME280;42891;50.006;21.964;2022-12-11T10:39:13;59512.53;;;-146.02;100.00
57000;BME280;42891;50.006;21.964;2022-12-11T10:43:14;59512.53;;;-146.02;100.00
57000;BME280;42891;50.006;21.964;2022-12-11T10:47:17;59512.53;;;-146.02;100.00
57000;BME280;42891;50.006;21.964;2022-12-11T10:51:17;59512.53;;;-146.02;100.00
57000;BME280;42891;50.006;21.964;2022-12-11T10:55:21;59512.53;;;-146.02;100.00
57000;BME280;42891;50.006;21.964;2022-12-11T10:59:30;59512.53;;;-146.02;100.00
57000;BME280;42891;50.006;21.964;2022-12-11T11:03:33;59512.53;;;-146.02;100.00
57000;BME280;42891;50.006;21.964;2022-12-11T11:07:34;59512.53;;;-146.02;100.00
57000;BME280;42891;50.006;21.964;2022-12-11T11:11:36;59512.53;;;-146.02;100.00
57000;BME280;42891;50.006;21.964;2022-12-11T11:15:37;59512.53;;;-146.02;100.00
57000;BME280;42891;50.006;21.964;2022-12-11T11:19:37;59512.53;;;-146.02;100.00
57000;BME280;42891;50.006;21.964;2022-12-11T11:23:38;59512.53;;;-146.02;100.00
57000;BME280;42891;50.006;21.964;2022-12-11T11:27:43;59512.53;;;-146.02;100.00
57000;BME280;42891;50.006;21.964;2022-12-11T11:31:44;59512.53;;;-146.02;100.00
57000;BME280;42891;50.006;21.964;2022-12-11T11:40:02;59512.53;;;-146.02;100.00
57000;BME280;42891;50.006;21.964;2022-12-11T11:44:09;59512.53;;;-146.02;100.00
57000;BME280;42891;50.006;21.964;2022-12-11T11:48:28;59512.53;;;-146.02;100.00
57000;BME280;42891;50.006;21.964;2022-12-11T11:56:38;59512.53;;;-146.02;100.00
57000;BME280;42891;50.006;21.964;2022-12-11T12:00:38;59512.53;;;-146.02;100.00
57000;BME280;42891;50.006;21.964;2022-12-11T12:04:38;59512.53;;;-146.02;100.00
57000;BME280;42891;50.006;21.964;2022-12-11T12:13:22;59512.53;;;-146.02;100.00
57000;BME280;42891;50.006;21.964;2022-12-11T12:17:32;59512.53;;;-146.02;100.00
57000;BME280;42891;50.006;21.964;2022-12-11T12:21:37;59512.53;;;-146.02;100.00
57000;BME280;42891;50.006;21.964;2022-12-11T12:25:54;59512.53;;;-146.02;100.00
57000;BME280;42891;50.006;21.964;2022-12-11T12:30:03;59512.53;;;-146.02;100.00
57000;BME280;42891;50.006;21.964;2022-12-11T12:34:35;59512.53;;;-146.02;100.00
57000;BME280;42891;50.006;21.964;2022-12-11T12:39:00;59512.53;;;-146.02;100.00
57000;BME280;42891;50.006;21.964;2022-12-11T12:47:27;59512.53;;;-146.02;100.00
57000;BME280;42891;50.006;21.964;2022-12-11T12:51:29;59512.53;;;-146.02;100.00
57000;BME280;42891;50.006;21.964;2022-12-11T12:55:31;59512.53;;;-146.02;100.00
57000;BME280;42891;50.006;21.964;2022-12-11T12:59:32;59512.53;;;-146.02;100.00
57000;BME280;42891;50.006;21.964;2022-12-11T13:03:36;59512.53;;;-146.02;100.00
57000;BME280;42891;50.006;21.964;2022-12-11T13:07:36;59512.53;;;-146.02;100.00
57000;BME280;42891;50.006;21.964;2022-12-11T13:11:37;59512.53;;;-146.02;100.00
57000;BME280;42891;50.006;21.964;2022-12-11T13:15:40;59512.53;;;-146.02;100.00
57000;BME280;42891;50.006;21.964;2022-12-11T13:19:42;59512.53;;;-146.02;100.00
57000;BME280;42891;50.006;21.964;2022-12-11T13:23:42;59512.53;;;-146.02;100.00
57000;BME280;42891;50.006;21.964;2022-12-11T13:27:43;59512.53;;;-146.02;100.00
57000;BME280;42891;50.006;21.964;2022-12-11T13:31:43;59512.53;;;-146.02;100.00
57000;BME280;42891;50.006;21.964;2022-12-11T13:35:44;59512.53;;;-146.02;100.00
57000;BME280;42891;50.006;21.964;2022-12-11T13:39:45;59512.53;;;-146.02;100.00
57000;BME280;42891;50.006;21.964;2022-12-11T13:43:47;59512.53;;;-146.02;100.00
57000;BME280;42891;50.006;21.964;2022-12-11T13:47:48;59512.53;;;-146.02;100.00
57000;BME280;42891;50.006;21.964;2022-12-11T13:51:58;59512.53;;;-146.02;100.00
57000;BME280;42891;50.006;21.964;2022-12-11T13:56:04;59512.53;;;-146.02;100.00
57000;BME280;42891;50.006;21.964;2022-12-11T14:00:19;59512.53;;;-146.02;100.00
57000;BME280;42891;50.006;21.964;2022-12-11T14:04:21;59512.53;;;-146.02;100.00
57000;BME280;42891;50.006;21.964;2022-12-11T14:08:26;59512.53;;;-146.02;100.00
57000;BME280;42891;50.006;21.964;2022-12-11T14:12:30;59512.53;;;-146.02;100.00
57000;BME280;42891;50.006;21.964;2022-12-11T14:16:31;59512.53;;;-146.02;100.00
57000;BME280;42891;50.006;21.964;2022-12-11T14:20:33;59512.53;;;-146.02;100.00
57000;BME280;42891;50.006;21.964;2022-12-11T14:24:33;59512.53;;;-146.02;100.00
57000;BME280;42891;50.006;21.964;2022-12-11T14:28:40;59512.53;;;-146.02;100.00
57000;BME280;42891;50.006;21.964;2022-12-11T14:32:42;59512.53;;;-146.02;100.00
57000;BME280;42891;50.006;21.964;2022-12-11T14:36:45;59512.53;;;-146.02;100.00
57000;BME280;42891;50.006;21.964;2022-12-11T14:40:49;59512.53;;;-146.02;100.00
57000;BME280;42891;50.006;21.964;2022-12-11T14:44:59;59512.53;;;-146.02;100.00
57000;BME280;42891;50.006;21.964;2022-12-11T14:49:07;59512.53;;;-146.02;100.00
57000;BME280;42891;50.006;21.964;2022-12-11T14:53:17;59512.53;;;-146.02;100.00
57000;BME280;42891;50.006;21.964;2022-12-11T14:57:29;59512.53;;;-146.02;100.00
57000;BME280;42891;50.006;21.964;2022-12-11T15:01:35;59512.53;;;-146.02;100.00
57000;BME280;42891;50.006;21.964;2022-12-11T15:05:53;59512.53;;;-146.02;100.00
57000;BME280;42891;50.006;21.964;2022-12-11T15:09:54;59512.53;;;-146.02;100.00
57000;BME280;42891;50.006;21.964;2022-12-11T15:13:57;59512.53;;;-146.02;100.00
57000;BME280;42891;50.006;21.964;2022-12-11T15:17:58;59512.53;;;-146.02;100.00
57000;BME280;42891;50.006;21.964;2022-12-11T15:22:03;59512.53;;;-146.02;100.00
57000;BME280;42891;50.006;21.964;2022-12-11T15:26:04;59512.53;;;-146.02;100.00
57000;BME280;42891;50.006;21.964;2022-12-11T15:34:23;59512.53;;;-146.02;100.00
57000;BME280;42891;50.006;21.964;2022-12-11T15:38:36;59512.53;;;-146.02;100.00
57000;BME280;42891;50.006;21.964;2022-12-11T15:42:40;59512.53;;;-146.02;100.00
57000;BME280;42891;50.006;21.964;2022-12-11T15:46:41;59512.53;;;-146.02;100.00
57000;BME280;42891;50.006;21.964;2022-12-11T15:50:41;59512.53;;;-146.02;100.00
57000;BME280;42891;50.006;21.964;2022-12-11T15:54:42;59512.53;;;-146.02;100.00
57000;BME280;42891;50.006;21.964;2022-12-11T15:58:46;59512.53;;;-146.02;100.00
57000;BME280;42891;50.006;21.964;2022-12-11T16:02:47;59512.53;;;-146.02;100.00
57000;BME280;42891;50.006;21.964;2022-12-11T16:06:47;59512.53;;;-146.02;100.00
57000;BME280;42891;50.006;21.964;2022-12-11T16:10:51;59512.53;;;-146.02;100.00
57000;BME280;42891;50.006;21.964;2022-12-11T16:14:51;59512.53;;;-146.02;100.00
57000;BME280;42891;50.006;21.964;2022-12-11T16:18:52;59512.53;;;-146.02;100.00
57000;BME280;42891;50.006;21.964;2022-12-11T16:22:52;59512.53;;;-146.02;100.00
57000;BME280;42891;50.006;21.964;2022-12-11T16:26:52;59512.53;;;-146.02;100.00
57000;BME280;42891;50.006;21.964;2022-12-11T16:30:52;59512.53;;;-146.02;100.00
57000;BME280;42891;50.006;21.964;2022-12-11T16:34:53;59512.53;;;-146.02;100.00
57000;BME280;42891;50.006;21.964;2022-12-11T16:38:53;59512.53;;;-146.02;100.00
57000;BME280;42891;50.006;21.964;2022-12-11T16:42:55;59512.53;;;-146.02;100.00
57000;BME280;42891;50.006;21.964;2022-12-11T16:46:56;59512.53;;;-146.02;100.00
57000;BME280;42891;50.006;21.964;2022-12-11T16:50:57;59512.53;;;-146.02;100.00
57000;BME280;42891;50.006;21.964;2022-12-11T16:54:57;59512.53;;;-146.02;100.00
57000;BME280;42891;50.006;21.964;2022-12-11T16:58:59;59512.53;;;-146.02;100.00
57000;BME280;42891;50.006;21.964;2022-12-11T17:03:00;59512.53;;;-146.02;100.00
57000;BME280;42891;50.006;21.964;2022-12-11T17:07:00;59512.53;;;-146.02;100.00
57000;BME280;42891;50.006;21.964;2022-12-11T17:11:09;59512.53;;;-146.02;100.00
57000;BME280;42891;50.006;21.964;2022-12-11T17:15:10;59512.53;;;-146.02;100.00
57000;BME280;42891;50.006;21.964;2022-12-11T17:19:10;59512.53;;;-146.02;100.00
57000;BME280;42891;50.006;21.964;2022-12-11T17:23:11;59512.53;;;-146.02;100.00
57000;BME280;42891;50.006;21.964;2022-12-11T17:27:12;59512.53;;;-146.02;100.00
57000;BME280;42891;50.006;21.964;2022-12-11T17:31:15;59512.53;;;-146.02;100.00
57000;BME280;42891;50.006;21.964;2022-12-11T17:35:16;59512.53;;;-146.02;100.00
57000;BME280;42891;50.006;21.964;2022-12-11T17:39:16;59512.53;;;-146.02;100.00
57000;BME280;42891;50.006;21.964;2022-12-11T17:43:16;59512.53;;;-146.02;100.00
57000;BME280;42891;50.006;21.964;2022-12-11T17:47:17;59512.53;;;-146.02;100.00
57000;BME280;42891;50.006;21.964;2022-12-11T17:51:17;59512.53;;;-146.02;100.00
57000;BME280;42891;50.006;21.964;2022-12-11T17:55:22;59512.53;;;-146.02;100.00
57000;BME280;42891;50.006;21.964;2022-12-11T17:59:23;59512.53;;;-146.02;100.00
57000;BME280;42891;50.006;21.964;2022-12-11T18:03:26;59512.53;;;-146.02;100.00
57000;BME280;42891;50.006;21.964;2022-12-11T18:07:26;59512.53;;;-146.02;100.00
57000;BME280;42891;50.006;21.964;2022-12-11T18:11:27;59512.53;;;-146.02;100.00
57000;BME280;42891;50.006;21.964;2022-12-11T18:15:27;59512.53;;;-146.02;100.00
57000;BME280;42891;50.006;21.964;2022-12-11T18:19:27;59512.53;;;-146.02;100.00
57000;BME280;42891;50.006;21.964;2022-12-11T18:23:28;59512.53;;;-146.02;100.00
57000;BME280;42891;50.006;21.964;2022-12-11T18:27:28;59512.53;;;-146.02;100.00
57000;BME280;42891;50.006;21.964;2022-12-11T18:31:28;59512.53;;;-146.02;100.00
57000;BME280;42891;50.006;21.964;2022-12-11T18:35:30;59512.53;;;-146.02;100.00
57000;BME280;42891;50.006;21.964;2022-12-11T18:39:30;59512.53;;;-146.02;100.00
57000;BME280;42891;50.006;21.964;2022-12-11T18:43:31;59512.53;;;-146.02;100.00
57000;BME280;42891;50.006;21.964;2022-12-11T18:47:31;59512.53;;;-146.02;100.00
57000;BME280;42891;50.006;21.964;2022-12-11T18:51:31;59512.53;;;-146.02;100.00
57000;BME280;42891;50.006;21.964;2022-12-11T18:55:32;59512.53;;;-146.02;100.00
57000;BME280;42891;50.006;21.964;2022-12-11T18:59:32;59512.53;;;-146.02;100.00
57000;BME280;42891;50.006;21.964;2022-12-11T19:03:33;59512.53;;;-146.02;100.00
57000;BME280;42891;50.006;21.964;2022-12-11T19:07:33;59512.53;;;-146.02;100.00
57000;BME280;42891;50.006;21.964;2022-12-11T19:11:34;59512.53;;;-146.02;100.00
57000;BME280;42891;50.006;21.964;2022-12-11T19:15:40;59512.53;;;-146.02;100.00
57000;BME280;42891;50.006;21.964;2022-12-11T19:19:41;59512.53;;;-146.02;100.00
57000;BME280;42891;50.006;21.964;2022-12-11T19:23:45;59512.53;;;-146.02;100.00
57000;BME280;42891;50.006;21.964;2022-12-11T19:27:46;59512.53;;;-146.02;100.00
57000;BME280;42891;50.006;21.964;2022-12-11T19:31:46;59512.53;;;-146.02;100.00
57000;BME280;42891;50.006;21.964;2022-12-11T19:35:47;59512.53;;;-146.02;100.00
57000;BME280;42891;50.006;21.964;2022-12-11T19:39:47;59512.53;;;-146.02;100.00
57000;BME280;42891;50.006;21.964;2022-12-11T19:43:48;59512.53;;;-146.02;100.00
57000;BME280;42891;50.006;21.964;2022-12-11T19:47:49;59512.53;;;-146.02;100.00
57000;BME280;42891;50.006;21.964;2022-12-11T19:51:49;59512.53;;;-146.02;100.00
57000;BME280;42891;50.006;21.964;2022-12-11T19:55:51;59512.53;;;-146.02;100.00
57000;BME280;42891;50.006;21.964;2022-12-11T19:59:51;59512.53;;;-146.02;100.00
57000;BME280;42891;50.006;21.964;2022-12-11T20:03:53;59512.53;;;-146.02;100.00
57000;BME280;42891;50.006;21.964;2022-12-11T20:07:53;59512.53;;;-146.02;100.00
57000;BME280;42891;50.006;21.964;2022-12-11T20:11:54;59512.53;;;-146.02;100.00
57000;BME280;42891;50.006;21.964;2022-12-11T20:15:54;59512.53;;;-146.02;100.00
57000;BME280;42891;50.006;21.964;2022-12-11T20:19:54;59512.53;;;-146.02;100.00
57000;BME280;42891;50.006;21.964;2022-12-11T20:23:55;59512.53;;;-146.02;100.00
57000;BME280;42891;50.006;21.964;2022-12-11T20:27:55;59512.53;;;-146.02;100.00
57000;BME280;42891;50.006;21.964;2022-12-11T20:31:55;59512.53;;;-146.02;100.00
57000;BME280;42891;50.006;21.964;2022-12-11T20:35:58;59512.53;;;-146.02;100.00
57000;BME280;42891;50.006;21.964;2022-12-11T20:39:59;59512.53;;;-146.02;100.00
57000;BME280;42891;50.006;21.964;2022-12-11T20:44:00;59512.53;;;-146.02;100.00
57000;BME280;42891;50.006;21.964;2022-12-11T20:48:00;59512.53;;;-146.02;100.00
57000;BME280;42891;50.006;21.964;2022-12-11T20:52:01;59512.53;;;-146.02;100.00
57000;BME280;42891;50.006;21.964;2022-12-11T20:56:07;59512.53;;;-146.02;100.00
57000;BME280;42891;50.006;21.964;2022-12-11T21:00:08;59512.53;;;-146.02;100.00
57000;BME280;42891;50.006;21.964;2022-12-11T21:04:09;59512.53;;;-146.02;100.00
57000;BME280;42891;50.006;21.964;2022-12-11T21:08:10;59512.53;;;-146.02;100.00
57000;BME280;42891;50.006;21.964;2022-12-11T21:12:10;59512.53;;;-146.02;100.00
57000;BME280;42891;50.006;21.964;2022-12-11T21:16:10;59512.53;;;-146.02;100.00
57000;BME280;42891;50.006;21.964;2022-12-11T21:20:11;59512.53;;;-146.02;100.00
57000;BME280;42891;50.006;21.964;2022-12-11T21:24:17;59512.53;;;-146.02;100.00
57000;BME280;42891;50.006;21.964;2022-12-11T21:28:18;59512.53;;;-146.02;100.00